createdAt,value
2022-09-25T00:00:24.081Z,41.35
2022-09-25T00:03:11.386Z,43.42
2022-09-25T00:06:21.225Z,46.70
2022-09-25T00:09:09.833Z,44.85
2022-09-25T00:11:55.583Z,44.28
2022-09-25T00:14:40.872Z,42.53
2022-09-25T00:17:26.234Z,42.67
2022-09-25T00:20:11.143Z,44.20
2022-09-25T00:22:56.575Z,44.10
2022-09-25T00:25:42.024Z,41.53
2022-09-25T00:28:27.615Z,41.83
2022-09-25T00:31:19.380Z,40.60
2022-09-25T00:34:06.000Z,40.33
2022-09-25T00:36:51.068Z,38.75
2022-09-25T00:39:36.097Z,38.22
2022-09-25T00:42:23.239Z,41.85
2022-09-25T00:45:20.860Z,42.83
2022-09-25T00:48:09.347Z,44.25
2022-09-25T00:50:57.389Z,42.58
2022-09-25T00:53:42.488Z,44.75
2022-09-25T00:56:31.722Z,47.45
2022-09-25T00:59:21.283Z,47.90
2022-09-25T01:02:10.525Z,39.70
2022-09-25T01:04:59.784Z,44.53
2022-09-25T01:07:48.246Z,41.58
2022-09-25T01:10:33.370Z,41.05
2022-09-25T01:13:19.330Z,43.60
2022-09-25T01:16:14.058Z,38.78
2022-09-25T01:19:25.659Z,40.42
2022-09-25T01:22:22.880Z,34.72
2022-09-25T01:25:29.088Z,34.78
2022-09-25T01:28:17.199Z,32.53
2022-09-25T01:31:08.647Z,31.83
2022-09-25T01:34:00.618Z,31.05
2022-09-25T01:36:52.622Z,30.30
2022-09-25T01:39:45.280Z,30.15
2022-09-25T01:42:37.110Z,28.85
2022-09-25T01:45:36.933Z,27.58
2022-09-25T01:48:30.559Z,26.48
2022-09-25T01:51:21.212Z,27.55
2022-09-25T01:54:14.252Z,24.88
2022-09-25T01:57:39.187Z,24.77
2022-09-25T02:00:25.492Z,22.80
2022-09-25T02:03:24.267Z,21.63
2022-09-25T02:06:14.403Z,20.90
2022-09-25T02:09:04.627Z,21.10
2022-09-25T02:11:56.309Z,20.42
2022-09-25T02:14:51.022Z,19.05
2022-09-25T02:17:44.514Z,18.27
2022-09-25T02:20:35.007Z,18.73
2022-09-25T02:23:44.552Z,18.30
2022-09-25T02:26:33.488Z,16.92
2022-09-25T02:29:19.836Z,20.52
2022-09-25T02:32:11.595Z,16.80
2022-09-25T02:34:58.367Z,16.33
2022-09-25T02:37:43.704Z,15.98
2022-09-25T02:40:55.227Z,14.43
2022-09-25T02:44:07.182Z,15.50
2022-09-25T02:46:58.162Z,15.25
2022-09-25T02:49:49.061Z,15.23
2022-09-25T02:53:04.045Z,13.68
2022-09-25T02:56:24.636Z,13.98
2022-09-25T02:59:16.666Z,13.38
2022-09-25T03:02:02.375Z,12.77
2022-09-25T03:04:49.961Z,12.75
2022-09-25T03:07:34.925Z,11.85
2022-09-25T03:10:20.494Z,11.18
2022-09-25T03:13:23.647Z,11.40
2022-09-25T03:16:22.165Z,10.70
2022-09-25T03:19:07.940Z,10.38
2022-09-25T03:21:52.865Z,10.07
2022-09-25T03:24:37.777Z,9.80
2022-09-25T03:27:23.176Z,10.60
2022-09-25T03:30:08.701Z,10.85
2022-09-25T03:32:53.700Z,9.63
2022-09-25T03:35:39.388Z,9.07
2022-09-25T03:38:24.529Z,9.48
2022-09-25T03:41:11.331Z,8.52
2022-09-25T03:43:57.092Z,8.75
2022-09-25T03:46:42.331Z,9.43
2022-09-25T03:49:27.298Z,9.73
2022-09-25T03:52:12.270Z,10.52
2022-09-25T03:54:57.480Z,8.95
2022-09-25T03:57:42.657Z,9.45
2022-09-25T04:00:27.810Z,8.90
2022-09-25T04:03:16.848Z,9.00
2022-09-25T04:06:04.279Z,9.60
2022-09-25T04:08:50.536Z,9.38
2022-09-25T04:11:35.464Z,9.13
2022-09-25T04:14:20.425Z,8.65
2022-09-25T04:17:05.356Z,8.35
2022-09-25T04:19:50.617Z,8.05
2022-09-25T04:22:35.995Z,8.90
2022-09-25T04:25:24.408Z,7.78
2022-09-25T04:28:09.709Z,8.20
2022-09-25T04:30:54.593Z,8.63
2022-09-25T04:33:39.488Z,8.52
2022-09-25T04:36:24.957Z,9.15
2022-09-25T04:39:10.158Z,8.88
2022-09-25T04:41:54.891Z,8.98
2022-09-25T04:44:39.804Z,9.38
2022-09-25T04:47:27.895Z,8.70
2022-09-25T04:50:12.950Z,9.20
2022-09-25T04:52:58.406Z,10.00
2022-09-25T04:55:43.881Z,9.10
2022-09-25T04:58:29.058Z,9.25
2022-09-25T05:01:14.903Z,8.15
2022-09-25T05:04:01.887Z,8.90
2022-09-25T05:06:49.800Z,8.23
2022-09-25T05:09:34.721Z,8.57
2022-09-25T05:12:19.660Z,8.15
2022-09-25T05:15:05.437Z,7.50
2022-09-25T05:17:50.536Z,7.85
2022-09-25T05:20:35.956Z,8.05
2022-09-25T05:23:21.921Z,8.55
2022-09-25T05:26:07.205Z,7.93
2022-09-25T05:28:52.628Z,7.38
2022-09-25T05:31:37.531Z,7.22
2022-09-25T05:34:23.125Z,7.40
2022-09-25T05:37:08.004Z,6.95
2022-09-25T05:39:53.019Z,7.45
2022-09-25T05:42:38.131Z,7.20
2022-09-25T05:45:23.437Z,7.20
2022-09-25T05:48:09.420Z,7.15
2022-09-25T05:50:56.090Z,7.63
2022-09-25T05:53:41.486Z,7.22
2022-09-25T05:56:27.032Z,6.97
2022-09-25T05:59:12.175Z,6.38
2022-09-25T06:01:57.479Z,6.50
2022-09-25T06:04:43.097Z,6.35
2022-09-25T06:07:28.346Z,6.75
2022-09-25T06:10:13.224Z,6.40
2022-09-25T06:13:00.133Z,6.25
2022-09-25T06:15:45.046Z,5.85
2022-09-25T06:18:30.342Z,6.50
2022-09-25T06:21:15.495Z,6.18
2022-09-25T06:24:01.083Z,5.97
2022-09-25T06:26:46.022Z,6.05
2022-09-25T06:29:31.037Z,6.25
2022-09-25T06:32:16.098Z,5.88
2022-09-25T06:35:01.447Z,5.90
2022-09-25T06:37:46.315Z,5.72
2022-09-25T06:40:32.061Z,6.13
2022-09-25T06:43:17.105Z,5.78
2022-09-25T06:46:02.948Z,6.45
2022-09-25T06:48:52.418Z,6.30
2022-09-25T06:51:37.647Z,6.70
2022-09-25T06:54:22.602Z,6.13
2022-09-25T06:57:07.697Z,5.97
2022-09-25T06:59:52.599Z,5.80
2022-09-25T07:02:37.642Z,5.32
2022-09-25T07:05:22.471Z,5.95
2022-09-25T07:08:07.331Z,5.55
2022-09-25T07:10:54.439Z,6.18
2022-09-25T07:13:39.657Z,5.03
2022-09-25T07:16:27.836Z,5.00
2022-09-25T07:19:12.993Z,5.20
2022-09-25T07:21:58.202Z,5.53
2022-09-25T07:24:43.745Z,5.25
2022-09-25T07:27:30.098Z,5.38
2022-09-25T07:30:15.080Z,5.07
2022-09-25T07:33:00.363Z,5.53
2022-09-25T07:35:45.337Z,5.05
2022-09-25T07:38:30.625Z,5.20
2022-09-25T07:41:16.370Z,4.72
2022-09-25T07:44:18.019Z,5.35
2022-09-25T07:47:07.057Z,4.80
2022-09-25T07:49:52.338Z,5.05
2022-09-25T07:52:37.389Z,5.43
2022-09-25T07:55:22.763Z,5.05
2022-09-25T07:58:07.630Z,5.60
2022-09-25T08:01:00.269Z,5.03
2022-09-25T08:03:45.330Z,5.55
2022-09-25T08:06:34.316Z,5.32
2022-09-25T08:09:19.824Z,4.55
2022-09-25T08:12:04.819Z,4.53
2022-09-25T08:14:54.193Z,4.95
2022-09-25T08:17:39.633Z,4.93
2022-09-25T08:20:24.818Z,4.40
2022-09-25T08:23:09.825Z,4.47
2022-09-25T08:25:55.532Z,3.83
2022-09-25T08:28:40.765Z,4.78
2022-09-25T08:31:26.319Z,4.28
2022-09-25T08:34:38.980Z,4.78
2022-09-25T08:37:16.511Z,4.38
2022-09-25T08:40:01.743Z,4.30
2022-09-25T08:42:50.974Z,4.05
2022-09-25T08:45:43.077Z,3.78
2022-09-25T08:48:37.111Z,3.65
2022-09-25T08:51:22.525Z,3.92
2022-09-25T08:54:15.626Z,3.88
2022-09-25T08:57:11.916Z,3.63
2022-09-25T09:00:02.788Z,3.63
2022-09-25T09:02:58.696Z,3.65
2022-09-25T09:05:49.525Z,3.78
2022-09-25T09:08:40.300Z,3.90
2022-09-25T09:11:50.373Z,4.07
2022-09-25T09:14:42.562Z,3.30
2022-09-25T09:17:28.531Z,3.15
2022-09-25T09:20:17.473Z,3.85
2022-09-25T09:23:04.746Z,3.45
2022-09-25T09:26:47.526Z,4.45
2022-09-25T09:30:05.787Z,3.58
2022-09-25T09:33:01.702Z,3.45
2022-09-25T09:36:02.590Z,3.72
2022-09-25T09:38:50.945Z,3.65
2022-09-25T09:41:54.018Z,4.00
2022-09-25T09:44:45.178Z,3.45
2022-09-25T09:47:56.073Z,3.10
2022-09-25T09:50:52.812Z,3.05
2022-09-25T09:53:41.306Z,3.40
2022-09-25T09:56:31.242Z,3.03
2022-09-25T09:59:20.100Z,2.92
2022-09-25T10:02:18.428Z,2.70
2022-09-25T10:05:09.166Z,2.90
2022-09-25T10:07:54.293Z,2.30
2022-09-25T10:10:42.721Z,2.25
2022-09-25T10:13:33.624Z,1.95
2022-09-25T10:16:24.276Z,2.42
2022-09-25T10:19:25.848Z,2.13
2022-09-25T10:22:21.295Z,1.83
2022-09-25T10:25:06.845Z,1.73
2022-09-25T10:27:52.579Z,1.92
2022-09-25T10:30:46.123Z,2.22
2022-09-25T10:33:32.312Z,1.83
2022-09-25T10:36:31.688Z,2.75
2022-09-25T10:40:01.662Z,2.15
2022-09-25T10:42:46.754Z,1.88
2022-09-25T10:45:35.063Z,2.15
2022-09-25T10:48:47.612Z,2.20
2022-09-25T10:51:35.523Z,2.08
2022-09-25T10:54:21.048Z,1.90
2022-09-25T10:57:27.762Z,1.77
2022-09-25T11:00:24.380Z,2.25
2022-09-25T11:03:18.584Z,1.90
2022-09-25T11:06:28.870Z,2.13
2022-09-25T11:09:20.474Z,2.25
2022-09-25T11:12:22.400Z,2.40
2022-09-25T11:15:07.796Z,2.15
2022-09-25T11:17:57.005Z,2.50
2022-09-25T11:20:42.164Z,2.17
2022-09-25T11:24:12.737Z,2.15
2022-09-25T11:27:17.248Z,1.95
2022-09-25T11:30:08.293Z,1.98
2022-09-25T11:33:22.890Z,1.83
2022-09-25T11:36:20.502Z,1.70
2022-09-25T11:39:18.409Z,1.75
2022-09-25T11:42:26.470Z,1.80
2022-09-25T11:45:26.689Z,1.92
2022-09-25T11:48:30.803Z,1.60
2022-09-25T11:51:38.009Z,1.75
2022-09-25T11:54:38.670Z,1.92
2022-09-25T11:57:34.584Z,1.92
2022-09-25T12:00:21.392Z,1.73
2022-09-25T12:03:18.981Z,1.90
2022-09-25T12:06:22.184Z,2.15
2022-09-25T12:09:19.262Z,1.90
2022-09-25T12:12:29.457Z,2.17
2022-09-25T12:15:15.144Z,2.20
2022-09-25T12:18:19.357Z,2.20
2022-09-25T12:21:10.498Z,1.75
2022-09-25T12:24:16.026Z,1.98
2022-09-25T12:27:39.341Z,2.10
2022-09-25T12:30:47.365Z,1.73
2022-09-25T12:33:37.824Z,1.70
2022-09-25T12:36:29.234Z,1.98
2022-09-25T12:39:40.749Z,1.80
2022-09-25T12:42:42.522Z,1.90
2022-09-25T12:45:34.982Z,1.60
2022-09-25T12:48:31.432Z,1.65
2022-09-25T12:51:25.829Z,2.10
2022-09-25T12:54:37.684Z,1.80
2022-09-25T12:57:44.740Z,1.75
2022-09-25T13:00:32.842Z,1.70
2022-09-25T13:03:27.829Z,1.80
2022-09-25T13:06:39.378Z,1.67
2022-09-25T13:09:34.998Z,1.70
2022-09-25T13:12:39.477Z,1.48
2022-09-25T13:15:30.015Z,1.80
2022-09-25T13:18:21.411Z,1.50
2022-09-25T13:21:31.362Z,1.73
2022-09-25T13:24:18.143Z,1.50
2022-09-25T13:27:03.582Z,1.70
2022-09-25T13:29:56.526Z,1.60
2022-09-25T13:32:50.283Z,1.70
2022-09-25T13:35:35.778Z,1.98
2022-09-25T13:38:20.885Z,1.33
2022-09-25T13:41:13.739Z,3.08
2022-09-25T13:44:36.442Z,1.60
2022-09-25T13:47:21.684Z,1.38
2022-09-25T13:50:12.658Z,1.20
2022-09-25T13:53:00.694Z,1.50
2022-09-25T13:55:48.531Z,1.50
2022-09-25T13:59:19.598Z,1.48
2022-09-25T14:02:42.911Z,1.30
2022-09-25T14:05:31.463Z,1.20
2022-09-25T14:08:16.611Z,1.33
2022-09-25T14:11:04.975Z,1.52
2022-09-25T14:13:52.520Z,1.25
2022-09-25T14:16:46.166Z,1.20
2022-09-25T14:19:35.071Z,1.00
2022-09-25T14:22:29.261Z,1.58
2022-09-25T14:25:38.892Z,1.30
2022-09-25T14:28:27.361Z,1.70
2022-09-25T14:31:30.694Z,1.27
2022-09-25T14:34:37.381Z,1.23
2022-09-25T14:37:42.030Z,1.40
2022-09-25T14:40:36.070Z,1.38
2022-09-25T14:43:45.569Z,1.30
2022-09-25T14:46:31.627Z,1.20
2022-09-25T14:49:31.774Z,1.30
2022-09-25T14:52:22.577Z,1.30
2022-09-25T14:55:14.947Z,1.52
2022-09-25T14:58:01.335Z,1.30
2022-09-25T15:00:50.278Z,1.58
2022-09-25T15:03:40.905Z,1.52
2022-09-25T15:06:34.496Z,1.50
2022-09-25T15:09:30.531Z,1.35
2022-09-25T15:12:33.546Z,1.60
2022-09-25T15:15:18.675Z,1.65
2022-09-25T15:18:04.494Z,1.73
2022-09-25T15:20:49.882Z,1.30
2022-09-25T15:23:36.375Z,1.27
2022-09-25T15:26:22.059Z,1.35
2022-09-25T15:29:21.562Z,1.20
2022-09-25T15:32:06.860Z,1.25
2022-09-25T15:35:13.800Z,1.20
2022-09-25T15:38:13.945Z,1.20
2022-09-25T15:40:59.741Z,1.35
2022-09-25T15:43:45.048Z,1.27
2022-09-25T15:46:38.306Z,1.05
2022-09-25T15:49:32.028Z,1.38
2022-09-25T15:52:29.937Z,1.00
2022-09-25T15:55:17.358Z,1.20
2022-09-25T15:58:12.866Z,1.00
2022-09-25T16:01:01.336Z,1.92
2022-09-25T16:03:52.511Z,1.50
2022-09-25T16:06:40.644Z,1.92
2022-09-25T16:09:33.526Z,1.52
2022-09-25T16:12:26.355Z,0.93
2022-09-25T16:15:23.566Z,0.93
2022-09-25T16:18:35.398Z,1.30
2022-09-25T16:21:33.245Z,1.10
2022-09-25T16:24:28.982Z,1.10
2022-09-25T16:27:25.781Z,1.10
2022-09-25T16:30:22.531Z,1.27
2022-09-25T16:33:22.601Z,1.10
2022-09-25T16:36:16.922Z,1.13
2022-09-25T16:39:09.173Z,1.33
2022-09-25T16:41:55.750Z,1.20
2022-09-25T16:44:43.978Z,1.30
2022-09-25T16:47:29.711Z,1.10
2022-09-25T16:50:15.084Z,1.10
2022-09-25T16:53:00.410Z,1.00
2022-09-25T16:55:47.595Z,1.23
2022-09-25T16:58:34.754Z,1.10
2022-09-25T17:01:21.748Z,1.60
2022-09-25T17:04:08.933Z,1.10
2022-09-25T17:06:54.946Z,1.23
2022-09-25T17:09:39.932Z,1.40
2022-09-25T17:12:25.794Z,1.60
2022-09-25T17:15:20.442Z,1.80
2022-09-25T17:18:25.867Z,1.60
2022-09-25T17:21:14.004Z,1.40
2022-09-25T17:23:59.505Z,1.50
2022-09-25T17:26:45.308Z,1.40
2022-09-25T17:29:30.243Z,1.40
2022-09-25T17:32:15.825Z,1.45
2022-09-25T17:35:01.001Z,1.70
2022-09-25T17:37:46.326Z,1.30
2022-09-25T17:40:32.418Z,1.40
2022-09-25T17:43:18.458Z,1.63
2022-09-25T17:46:03.420Z,1.42
2022-09-25T17:48:53.849Z,1.40
2022-09-25T17:51:39.799Z,1.33
2022-09-25T17:54:24.709Z,1.70
2022-09-25T17:57:09.872Z,1.70
2022-09-25T17:59:54.974Z,1.65
2022-09-25T18:02:41.084Z,1.50
2022-09-25T18:05:27.064Z,1.67
2022-09-25T18:08:13.144Z,1.50
2022-09-25T18:10:58.855Z,1.33
2022-09-25T18:13:43.960Z,1.33
2022-09-25T18:16:31.562Z,1.92
2022-09-25T18:19:18.815Z,1.55
2022-09-25T18:22:04.588Z,1.67
2022-09-25T18:24:51.072Z,1.70
2022-09-25T18:27:39.567Z,1.50
2022-09-25T18:30:24.552Z,1.85
2022-09-25T18:33:10.101Z,1.83
2022-09-25T18:35:55.506Z,1.95
2022-09-25T18:38:41.765Z,1.70
2022-09-25T18:41:26.540Z,1.60
2022-09-25T18:44:11.589Z,1.60
2022-09-25T18:46:57.020Z,2.30
2022-09-25T18:49:42.215Z,2.10
2022-09-25T18:52:27.254Z,1.77
2022-09-25T18:55:12.242Z,1.77
2022-09-25T18:57:57.276Z,1.70
2022-09-25T19:00:42.134Z,1.70
2022-09-25T19:03:27.680Z,1.70
2022-09-25T19:06:13.050Z,2.00
2022-09-25T19:08:58.251Z,2.00
2022-09-25T19:11:43.333Z,2.22
2022-09-25T19:14:28.158Z,1.70
2022-09-25T19:17:14.869Z,2.10
2022-09-25T19:19:59.874Z,2.00
2022-09-25T19:22:44.926Z,2.20
2022-09-25T19:25:30.335Z,2.22
2022-09-25T19:28:15.869Z,2.20
2022-09-25T19:31:02.638Z,2.58
2022-09-25T19:33:48.036Z,2.30
2022-09-25T19:36:34.089Z,2.20
2022-09-25T19:39:19.503Z,2.10
2022-09-25T19:42:04.616Z,2.72
2022-09-25T19:44:49.820Z,2.75
2022-09-25T19:47:35.227Z,2.40
2022-09-25T19:50:20.530Z,2.80
2022-09-25T19:53:05.441Z,2.50
2022-09-25T19:55:51.800Z,2.50
2022-09-25T19:58:37.296Z,2.43
2022-09-25T20:01:27.971Z,2.88
2022-09-25T20:04:18.278Z,2.30
2022-09-25T20:07:03.942Z,2.53
2022-09-25T20:09:49.472Z,2.70
2022-09-25T20:12:34.390Z,2.83
2022-09-25T20:15:19.787Z,2.90
2022-09-25T20:18:05.653Z,4.27
2022-09-25T20:20:50.470Z,4.37
2022-09-25T20:23:35.850Z,3.90
2022-09-25T20:26:22.015Z,4.30
2022-09-25T20:29:11.468Z,4.32
2022-09-25T20:31:56.729Z,4.03
2022-09-25T20:34:41.725Z,4.87
2022-09-25T20:37:26.562Z,4.47
2022-09-25T20:40:11.585Z,4.07
2022-09-25T20:42:56.630Z,5.93
2022-09-25T20:45:42.155Z,7.23
2022-09-25T20:48:27.522Z,14.17
2022-09-25T20:51:15.510Z,15.00
2022-09-25T20:54:10.296Z,7.07
2022-09-25T20:56:55.629Z,17.23
2022-09-25T20:59:40.479Z,12.83
2022-09-25T21:02:25.556Z,8.83
2022-09-25T21:05:11.126Z,7.77
2022-09-25T21:07:56.389Z,5.83
2022-09-25T21:10:41.218Z,4.40
2022-09-25T21:13:27.589Z,4.60
2022-09-25T21:16:14.557Z,4.87
2022-09-25T21:19:02.694Z,4.80
2022-09-25T21:21:48.372Z,4.60
2022-09-25T21:24:33.281Z,4.40
2022-09-25T21:27:18.763Z,4.60
2022-09-25T21:30:04.523Z,3.93
2022-09-25T21:32:49.479Z,4.77
2022-09-25T21:35:34.537Z,4.40
2022-09-25T21:38:20.093Z,4.60
2022-09-25T21:41:08.155Z,4.20
2022-09-25T21:43:59.773Z,3.83
2022-09-25T21:46:45.053Z,4.03
2022-09-25T21:49:30.192Z,4.17
2022-09-25T21:52:15.384Z,4.53
2022-09-25T21:55:00.758Z,4.60
2022-09-25T21:57:45.605Z,4.57
2022-09-25T22:00:30.832Z,4.50
2022-09-25T22:03:15.699Z,4.23
2022-09-25T22:06:03.005Z,4.20
2022-09-25T22:08:52.402Z,4.20
2022-09-25T22:11:38.647Z,4.50
2022-09-25T22:14:23.826Z,4.40
2022-09-25T22:17:09.176Z,4.47
2022-09-25T22:19:54.372Z,4.17
2022-09-25T22:22:39.794Z,4.70
2022-09-25T22:25:24.616Z,4.93
2022-09-25T22:28:09.568Z,4.20
2022-09-25T22:30:55.221Z,4.20
2022-09-25T22:33:41.016Z,4.50
2022-09-25T22:36:26.930Z,4.20
2022-09-25T22:39:14.741Z,4.70
2022-09-25T22:42:00.508Z,4.20
2022-09-25T22:44:45.448Z,4.60
2022-09-25T22:47:31.353Z,5.20
2022-09-25T22:50:16.676Z,4.47
2022-09-25T22:53:01.684Z,4.20
2022-09-25T22:55:46.475Z,4.93
2022-09-25T22:58:31.462Z,5.03
2022-09-25T23:01:20.443Z,4.63
2022-09-25T23:04:10.687Z,4.23
2022-09-25T23:06:55.858Z,4.20
2022-09-25T23:09:41.145Z,4.50
2022-09-25T23:12:30.471Z,4.73
2022-09-25T23:15:16.170Z,5.23
2022-09-25T23:18:01.072Z,4.43
2022-09-25T23:20:54.533Z,5.13
2022-09-25T23:23:39.686Z,4.70
2022-09-25T23:26:25.898Z,4.83
2022-09-25T23:29:18.704Z,4.90
2022-09-25T23:32:03.803Z,4.40
2022-09-25T23:34:48.971Z,4.43
2022-09-25T23:37:34.377Z,4.70
2022-09-25T23:40:19.290Z,4.90
2022-09-25T23:43:04.822Z,4.73
2022-09-25T23:45:50.092Z,4.73
2022-09-25T23:48:35.261Z,4.80
2022-09-25T23:51:20.955Z,5.07
2022-09-25T23:54:06.512Z,4.97
2022-09-25T23:56:51.796Z,5.23
2022-09-25T23:59:37.117Z,5.43
